createdAt,value
2019-03-31T00:02:21.265Z,6.80
2019-03-31T00:04:58.708Z,8.60
2019-03-31T00:07:35.955Z,8.48
2019-03-31T00:10:13.684Z,7.80
2019-03-31T00:12:50.263Z,8.23
2019-03-31T00:15:27.269Z,7.58
2019-03-31T00:18:03.690Z,7.78
2019-03-31T00:20:40.716Z,7.47
2019-03-31T00:23:18.147Z,7.12
2019-03-31T00:25:55.656Z,6.95
2019-03-31T00:28:32.317Z,8.48
2019-03-31T00:31:21.575Z,8.28
2019-03-31T00:33:48.843Z,7.12
2019-03-31T00:36:25.515Z,8.10
2019-03-31T00:39:02.231Z,6.78
2019-03-31T00:41:39.461Z,8.15
2019-03-31T00:44:16.343Z,7.83
2019-03-31T00:46:54.134Z,7.03
2019-03-31T00:49:31.276Z,7.37
2019-03-31T00:52:08.424Z,6.58
2019-03-31T00:54:45.586Z,6.60
2019-03-31T00:57:23.225Z,6.28
2019-03-31T00:59:59.879Z,7.22
2019-03-31T01:02:36.677Z,9.10
2019-03-31T01:05:13.832Z,6.70
2019-03-31T01:07:52.049Z,9.48
2019-03-31T01:10:29.676Z,8.35
2019-03-31T01:13:06.981Z,8.10
2019-03-31T01:15:43.380Z,6.42
2019-03-31T01:18:20.204Z,7.00
2019-03-31T01:20:56.680Z,7.95
2019-03-31T01:23:33.585Z,7.42
2019-03-31T01:26:10.071Z,8.53
2019-03-31T01:28:48.590Z,6.40
2019-03-31T01:31:28.192Z,8.65
2019-03-31T01:34:05.477Z,7.17
2019-03-31T01:36:42.057Z,6.85
2019-03-31T01:39:21.146Z,6.37
2019-03-31T01:41:58.027Z,9.13
2019-03-31T01:44:34.813Z,6.75
2019-03-31T01:47:13.451Z,6.53
2019-03-31T01:49:50.795Z,7.65
2019-03-31T01:52:28.130Z,8.40
2019-03-31T01:55:07.661Z,6.67
2019-03-31T01:57:46.260Z,6.55
2019-03-31T02:00:38.565Z,6.42
2019-03-31T02:03:15.511Z,6.25
2019-03-31T02:05:52.578Z,7.00
2019-03-31T02:08:29.159Z,6.67
2019-03-31T02:11:06.351Z,7.03
2019-03-31T02:13:43.058Z,8.25
2019-03-31T02:16:20.427Z,7.12
2019-03-31T02:18:56.956Z,6.75
2019-03-31T02:21:33.200Z,6.37
2019-03-31T02:24:09.881Z,6.28
2019-03-31T02:26:46.861Z,8.83
2019-03-31T02:29:23.786Z,6.75
2019-03-31T02:32:01.246Z,7.40
2019-03-31T02:34:38.009Z,7.17
2019-03-31T02:37:15.521Z,9.90
2019-03-31T02:39:52.165Z,6.62
2019-03-31T02:42:30.317Z,6.55
2019-03-31T02:45:07.528Z,6.95
2019-03-31T02:47:44.574Z,7.22
2019-03-31T02:50:47.573Z,7.08
2019-03-31T02:53:24.113Z,8.08
2019-03-31T02:56:00.780Z,6.92
2019-03-31T02:58:39.143Z,5.78
2019-03-31T03:01:16.706Z,6.12
2019-03-31T03:03:54.562Z,7.28
2019-03-31T03:06:32.156Z,6.78
2019-03-31T03:09:09.599Z,7.37
2019-03-31T03:11:47.052Z,7.17
2019-03-31T03:14:26.818Z,6.62
2019-03-31T03:17:03.597Z,5.78
2019-03-31T03:19:40.901Z,5.87
2019-03-31T03:22:17.561Z,7.12
2019-03-31T03:24:54.079Z,5.55
2019-03-31T03:27:31.404Z,9.13
2019-03-31T03:30:09.279Z,7.60
2019-03-31T03:33:12.451Z,6.80
2019-03-31T03:35:24.625Z,6.80
2019-03-31T03:38:01.671Z,5.87
2019-03-31T03:40:39.088Z,5.58
2019-03-31T03:43:16.169Z,6.53
2019-03-31T03:45:54.297Z,7.85
2019-03-31T03:48:30.827Z,7.00
2019-03-31T03:51:07.494Z,6.50
2019-03-31T03:53:44.445Z,6.75
2019-03-31T03:56:22.025Z,6.28
2019-03-31T03:58:59.160Z,6.55
2019-03-31T04:01:37.344Z,6.33
2019-03-31T04:04:13.931Z,5.00
2019-03-31T04:06:51.867Z,6.25
2019-03-31T04:09:28.725Z,6.03
2019-03-31T04:12:06.110Z,6.65
2019-03-31T04:14:42.413Z,6.10
2019-03-31T04:17:19.015Z,7.83
2019-03-31T04:19:56.027Z,6.03
2019-03-31T04:22:33.534Z,5.90
2019-03-31T04:25:10.003Z,6.97
2019-03-31T04:27:46.897Z,7.08
2019-03-31T04:30:23.720Z,5.97
2019-03-31T04:33:03.643Z,6.62
2019-03-31T04:35:41.271Z,7.87
2019-03-31T04:38:19.119Z,6.30
2019-03-31T04:40:56.688Z,6.58
2019-03-31T04:43:33.974Z,6.05
2019-03-31T04:46:10.566Z,5.75
2019-03-31T04:48:47.681Z,5.85
2019-03-31T04:51:24.388Z,6.12
2019-03-31T04:54:00.806Z,6.58
2019-03-31T04:56:38.454Z,6.60
2019-03-31T04:59:16.493Z,6.22
2019-03-31T05:01:52.948Z,5.55
2019-03-31T05:04:30.129Z,5.75
2019-03-31T05:07:06.900Z,6.30
2019-03-31T05:09:44.324Z,5.97
2019-03-31T05:12:21.040Z,4.67
2019-03-31T05:14:58.465Z,5.42
2019-03-31T05:17:36.047Z,5.95
2019-03-31T05:20:13.205Z,7.10
2019-03-31T05:22:52.666Z,5.53
2019-03-31T05:25:28.430Z,5.28
2019-03-31T05:28:06.900Z,6.08
2019-03-31T05:30:44.791Z,5.10
2019-03-31T05:33:21.192Z,5.60
2019-03-31T05:35:58.320Z,7.08
2019-03-31T05:38:35.870Z,6.20
2019-03-31T05:41:12.524Z,5.22
2019-03-31T05:43:49.340Z,5.80
2019-03-31T05:46:27.489Z,6.28
2019-03-31T05:49:03.968Z,5.67
2019-03-31T05:51:40.446Z,4.95
2019-03-31T05:54:16.870Z,7.12
2019-03-31T05:56:54.001Z,6.05
2019-03-31T05:59:30.961Z,5.65
2019-03-31T06:02:08.668Z,5.20
2019-03-31T06:04:45.830Z,5.70
2019-03-31T06:07:22.697Z,6.00
2019-03-31T06:09:59.579Z,6.12
2019-03-31T06:12:37.250Z,5.20
2019-03-31T06:15:14.162Z,6.08
2019-03-31T06:17:51.040Z,5.65
2019-03-31T06:20:27.698Z,5.42
2019-03-31T06:23:06.529Z,4.97
2019-03-31T06:25:43.301Z,6.90
2019-03-31T06:28:20.638Z,5.58
2019-03-31T06:30:58.169Z,5.15
2019-03-31T06:33:35.840Z,5.67
2019-03-31T06:36:12.482Z,4.75
2019-03-31T06:38:50.168Z,7.00
2019-03-31T06:41:27.717Z,6.00
2019-03-31T06:44:05.031Z,6.10
2019-03-31T06:46:41.676Z,5.45
2019-03-31T06:49:19.818Z,5.80
2019-03-31T06:51:56.357Z,5.25
2019-03-31T06:54:34.600Z,5.50
2019-03-31T06:57:12.059Z,6.25
2019-03-31T06:59:49.385Z,5.90
2019-03-31T07:02:26.325Z,7.00
2019-03-31T07:05:03.602Z,6.42
2019-03-31T07:07:41.081Z,6.65
2019-03-31T07:10:18.375Z,10.23
2019-03-31T07:12:55.328Z,13.05
2019-03-31T07:15:32.343Z,11.63
2019-03-31T07:18:08.977Z,10.95
2019-03-31T07:20:45.658Z,10.38
2019-03-31T07:23:22.784Z,10.90
2019-03-31T07:26:00.185Z,12.30
2019-03-31T07:28:37.483Z,12.37
2019-03-31T07:31:15.021Z,11.22
2019-03-31T07:33:52.593Z,9.63
2019-03-31T07:36:29.796Z,10.00
2019-03-31T07:39:07.915Z,11.55
2019-03-31T07:41:44.543Z,9.90
2019-03-31T07:44:22.082Z,8.78
2019-03-31T07:46:58.736Z,8.88
2019-03-31T07:49:35.645Z,9.95
2019-03-31T07:52:12.419Z,7.78
2019-03-31T07:54:49.415Z,8.43
2019-03-31T07:57:26.577Z,8.08
2019-03-31T08:00:03.144Z,9.33
2019-03-31T08:02:39.806Z,10.45
2019-03-31T08:05:32.126Z,7.28
2019-03-31T08:07:57.035Z,8.33
2019-03-31T08:10:34.347Z,9.43
2019-03-31T08:13:11.521Z,7.90
2019-03-31T08:15:48.418Z,9.70
2019-03-31T08:18:25.650Z,8.38
2019-03-31T08:21:02.664Z,7.87
2019-03-31T08:23:39.248Z,8.18
2019-03-31T08:26:16.861Z,6.55
2019-03-31T08:28:53.380Z,6.55
2019-03-31T08:31:29.910Z,7.53
2019-03-31T08:34:07.038Z,6.65
2019-03-31T08:36:43.684Z,8.03
2019-03-31T08:39:20.936Z,10.35
2019-03-31T08:41:58.466Z,7.83
2019-03-31T08:44:35.122Z,9.25
2019-03-31T08:47:12.878Z,10.65
2019-03-31T08:49:50.219Z,11.33
2019-03-31T08:52:27.259Z,10.35
2019-03-31T08:55:05.033Z,9.30
2019-03-31T08:57:42.258Z,11.40
2019-03-31T09:00:27.222Z,12.82
2019-03-31T09:03:04.678Z,9.30
2019-03-31T09:05:42.508Z,10.18
2019-03-31T09:08:19.245Z,11.38
2019-03-31T09:10:56.001Z,12.07
2019-03-31T09:13:33.354Z,12.80
2019-03-31T09:16:10.244Z,11.22
2019-03-31T09:18:46.673Z,12.80
2019-03-31T09:21:23.916Z,15.63
2019-03-31T09:24:01.197Z,13.22
2019-03-31T09:26:38.292Z,10.13
2019-03-31T09:29:15.570Z,13.03
2019-03-31T09:31:52.192Z,10.48
2019-03-31T09:34:29.514Z,12.68
2019-03-31T09:37:06.288Z,11.45
2019-03-31T09:39:43.113Z,12.13
2019-03-31T09:42:20.032Z,9.58
2019-03-31T09:44:56.533Z,8.78
2019-03-31T09:47:33.642Z,8.10
2019-03-31T09:50:12.210Z,9.28
2019-03-31T09:52:48.498Z,8.75
2019-03-31T09:55:25.102Z,8.50
2019-03-31T09:58:01.800Z,7.53
2019-03-31T10:00:51.460Z,7.50
2019-03-31T10:03:28.589Z,7.92
2019-03-31T10:06:11.011Z,9.03
2019-03-31T10:08:44.934Z,6.70
2019-03-31T10:11:22.528Z,7.60
2019-03-31T10:13:59.444Z,7.45
2019-03-31T10:16:36.565Z,6.37
2019-03-31T10:19:14.355Z,6.75
2019-03-31T10:21:51.325Z,6.03
2019-03-31T10:24:29.019Z,5.90
2019-03-31T10:27:06.446Z,7.47
2019-03-31T10:29:43.908Z,8.53
2019-03-31T10:32:20.671Z,7.05
2019-03-31T10:34:58.024Z,9.35
2019-03-31T10:37:34.277Z,7.55
2019-03-31T10:40:11.896Z,9.43
2019-03-31T10:42:48.845Z,8.53
2019-03-31T10:45:25.816Z,7.55
2019-03-31T10:48:02.773Z,7.42
2019-03-31T10:50:40.156Z,8.85
2019-03-31T10:53:16.874Z,9.85
2019-03-31T10:55:54.171Z,9.08
2019-03-31T10:58:30.892Z,10.98
2019-03-31T11:01:08.244Z,12.50
2019-03-31T11:03:45.494Z,8.63
2019-03-31T11:06:22.889Z,10.08
2019-03-31T11:08:59.861Z,10.08
2019-03-31T11:11:36.712Z,11.75
2019-03-31T11:14:13.222Z,9.25
2019-03-31T11:16:50.016Z,9.25
2019-03-31T11:19:27.037Z,8.13
2019-03-31T11:22:12.044Z,8.43
2019-03-31T11:24:49.095Z,9.98
2019-03-31T11:27:25.832Z,8.98
2019-03-31T11:30:03.260Z,7.90
2019-03-31T11:32:40.581Z,7.17
2019-03-31T11:35:17.929Z,8.83
2019-03-31T11:37:54.765Z,6.28
2019-03-31T11:40:31.643Z,7.90
2019-03-31T11:43:09.126Z,8.40
2019-03-31T11:45:46.529Z,7.35
2019-03-31T11:48:23.998Z,7.00
2019-03-31T11:51:00.757Z,6.75
2019-03-31T11:53:37.389Z,6.42
2019-03-31T11:56:14.384Z,7.42
2019-03-31T11:58:51.509Z,6.80
2019-03-31T12:01:28.374Z,7.00
2019-03-31T12:04:05.690Z,6.12
2019-03-31T12:06:42.627Z,6.03
2019-03-31T12:09:19.260Z,7.42
2019-03-31T12:11:56.705Z,6.55
2019-03-31T12:14:33.551Z,6.67
2019-03-31T12:17:10.532Z,6.20
2019-03-31T12:19:48.920Z,5.72
2019-03-31T12:22:25.893Z,5.45
2019-03-31T12:25:02.560Z,5.25
2019-03-31T12:27:41.041Z,6.03
2019-03-31T12:30:27.246Z,4.83
2019-03-31T12:33:04.420Z,5.53
2019-03-31T12:35:42.097Z,7.62
2019-03-31T12:38:19.045Z,5.20
2019-03-31T12:40:56.771Z,5.95
2019-03-31T12:43:33.161Z,5.15
2019-03-31T12:46:11.173Z,4.90
2019-03-31T12:48:48.236Z,5.90
2019-03-31T12:51:26.165Z,5.47
2019-03-31T12:54:03.260Z,5.90
2019-03-31T12:56:40.864Z,4.67
2019-03-31T12:59:17.883Z,5.60
2019-03-31T13:01:54.452Z,6.65
2019-03-31T13:04:30.687Z,4.90
2019-03-31T13:07:07.484Z,5.15
2019-03-31T13:09:44.029Z,5.65
2019-03-31T13:12:22.049Z,5.65
2019-03-31T13:14:59.306Z,5.12
2019-03-31T13:17:36.428Z,5.95
2019-03-31T13:20:13.540Z,7.15
2019-03-31T13:22:50.329Z,5.28
2019-03-31T13:25:26.588Z,7.25
2019-03-31T13:28:05.671Z,5.87
2019-03-31T13:30:42.526Z,5.60
2019-03-31T13:33:19.492Z,6.25
2019-03-31T13:35:55.793Z,5.37
2019-03-31T13:38:32.848Z,5.30
2019-03-31T13:41:09.388Z,6.00
2019-03-31T13:43:47.105Z,7.42
2019-03-31T13:46:24.189Z,4.92
2019-03-31T13:49:01.175Z,5.42
2019-03-31T13:51:38.044Z,5.60
2019-03-31T13:54:16.150Z,4.95
2019-03-31T13:56:53.921Z,4.67
2019-03-31T13:59:32.572Z,5.20
2019-03-31T14:02:09.453Z,4.72
2019-03-31T14:04:51.704Z,5.35
2019-03-31T14:07:25.540Z,6.37
2019-03-31T14:10:03.473Z,5.83
2019-03-31T14:12:40.422Z,7.60
2019-03-31T14:15:19.424Z,7.47
2019-03-31T14:17:55.434Z,11.93
2019-03-31T14:20:32.204Z,8.65
2019-03-31T14:23:09.433Z,8.73
2019-03-31T14:25:46.338Z,8.15
2019-03-31T14:28:23.249Z,6.75
2019-03-31T14:31:00.700Z,6.80
2019-03-31T14:33:37.200Z,6.45
2019-03-31T14:36:14.914Z,6.08
2019-03-31T14:38:51.499Z,7.87
2019-03-31T14:41:29.089Z,7.20
2019-03-31T14:44:06.069Z,7.72
2019-03-31T14:46:43.462Z,8.48
2019-03-31T14:49:20.858Z,8.05
2019-03-31T14:52:01.075Z,6.67
2019-03-31T14:54:36.536Z,7.78
2019-03-31T14:57:14.340Z,11.97
2019-03-31T14:59:51.109Z,9.78
2019-03-31T15:02:27.502Z,8.08
2019-03-31T15:05:04.657Z,9.78
2019-03-31T15:07:42.155Z,7.67
2019-03-31T15:10:19.432Z,8.03
2019-03-31T15:12:57.201Z,10.48
2019-03-31T15:15:35.715Z,9.88
2019-03-31T15:18:12.991Z,11.83
2019-03-31T15:20:50.138Z,10.40
2019-03-31T15:23:29.535Z,8.83
2019-03-31T15:26:06.804Z,10.45
2019-03-31T15:28:45.611Z,9.58
2019-03-31T15:31:22.602Z,9.00
2019-03-31T15:33:59.684Z,10.45
2019-03-31T15:36:36.776Z,9.00
2019-03-31T15:39:14.134Z,7.72
2019-03-31T15:41:51.173Z,9.00
2019-03-31T15:44:28.427Z,9.30
2019-03-31T15:47:04.882Z,10.45
2019-03-31T15:49:42.031Z,10.93
2019-03-31T15:52:18.599Z,10.48
2019-03-31T15:54:55.494Z,7.50
2019-03-31T15:57:32.541Z,7.20
2019-03-31T16:00:10.315Z,9.03
2019-03-31T16:02:46.575Z,8.33
2019-03-31T16:05:24.146Z,9.48
2019-03-31T16:08:00.274Z,8.73
2019-03-31T16:10:36.305Z,8.23
2019-03-31T16:13:12.586Z,7.97
2019-03-31T16:15:49.378Z,7.95
2019-03-31T16:18:25.937Z,10.10
2019-03-31T16:21:02.264Z,10.43
2019-03-31T16:23:39.137Z,9.68
2019-03-31T16:26:15.169Z,9.48
2019-03-31T16:28:51.595Z,7.00
2019-03-31T16:31:28.912Z,7.65
2019-03-31T16:34:05.148Z,9.18
2019-03-31T16:36:41.365Z,8.28
2019-03-31T16:39:17.306Z,9.88
2019-03-31T16:41:53.849Z,8.25
2019-03-31T16:44:29.892Z,8.00
2019-03-31T16:47:06.704Z,11.33
2019-03-31T16:49:43.350Z,8.93
2019-03-31T16:52:20.348Z,6.70
2019-03-31T16:54:57.201Z,7.35
2019-03-31T16:57:33.127Z,7.95
2019-03-31T17:00:09.645Z,6.50
2019-03-31T17:02:45.989Z,6.08
2019-03-31T17:05:22.783Z,8.60
2019-03-31T17:07:59.464Z,6.12
2019-03-31T17:10:35.201Z,6.30
2019-03-31T17:13:11.756Z,7.47
2019-03-31T17:15:47.890Z,6.17
2019-03-31T17:18:24.931Z,8.15
2019-03-31T17:21:01.385Z,5.22
2019-03-31T17:23:37.721Z,6.00
2019-03-31T17:26:14.038Z,6.90
2019-03-31T17:28:50.404Z,6.25
2019-03-31T17:31:26.649Z,6.55
2019-03-31T17:34:02.789Z,6.28
2019-03-31T17:36:38.655Z,6.85
2019-03-31T17:39:15.018Z,6.62
2019-03-31T17:41:51.493Z,4.33
2019-03-31T17:44:28.189Z,9.25
2019-03-31T17:47:05.197Z,6.15
2019-03-31T17:49:41.741Z,5.83
2019-03-31T17:52:18.871Z,6.75
2019-03-31T17:54:55.705Z,4.65
2019-03-31T17:57:32.147Z,5.47
2019-03-31T18:00:10.157Z,6.12
2019-03-31T18:02:46.844Z,7.50
2019-03-31T18:05:24.048Z,5.00
2019-03-31T18:08:00.824Z,5.42
2019-03-31T18:10:37.652Z,7.35
2019-03-31T18:13:13.826Z,5.60
2019-03-31T18:15:50.378Z,4.80
2019-03-31T18:18:26.567Z,5.47
2019-03-31T18:21:04.151Z,5.05
2019-03-31T18:23:42.112Z,5.12
2019-03-31T18:26:20.506Z,6.45
2019-03-31T18:28:56.970Z,5.20
2019-03-31T18:31:33.351Z,4.62
2019-03-31T18:34:09.280Z,5.22
2019-03-31T18:36:45.719Z,5.42
2019-03-31T18:39:22.011Z,4.70
2019-03-31T18:41:59.930Z,5.28
2019-03-31T18:44:36.622Z,6.22
2019-03-31T18:47:13.157Z,5.25
2019-03-31T18:49:49.474Z,4.58
2019-03-31T18:52:25.755Z,4.53
2019-03-31T18:55:28.217Z,5.33
2019-03-31T18:58:29.403Z,6.67
2019-03-31T19:01:24.874Z,5.55
2019-03-31T19:04:23.785Z,5.75
2019-03-31T19:07:34.559Z,6.78
2019-03-31T19:10:48.844Z,4.90
2019-03-31T19:13:32.129Z,7.28
2019-03-31T19:16:26.500Z,4.28
2019-03-31T19:19:12.730Z,4.90
2019-03-31T19:22:00.113Z,5.17
2019-03-31T19:24:46.703Z,5.75
2019-03-31T19:27:48.763Z,5.00
2019-03-31T19:30:49.738Z,3.90
2019-03-31T19:33:36.378Z,4.42
2019-03-31T19:36:30.871Z,6.72
2019-03-31T19:39:37.298Z,4.75
2019-03-31T19:42:32.564Z,9.65
2019-03-31T19:45:34.440Z,8.75
2019-03-31T19:48:29.334Z,21.17
2019-03-31T19:51:24.591Z,9.70
2019-03-31T19:54:09.899Z,10.72
2019-03-31T19:57:04.371Z,13.53
2019-03-31T19:59:58.788Z,17.95
2019-03-31T20:03:02.698Z,15.08
2019-03-31T20:06:13.664Z,10.63
2019-03-31T20:09:07.345Z,19.07
2019-03-31T20:11:53.440Z,10.70
2019-03-31T20:14:53.361Z,9.00
2019-03-31T20:17:47.533Z,9.48
2019-03-31T20:20:50.662Z,9.98
2019-03-31T20:23:48.926Z,8.18
2019-03-31T20:26:50.957Z,11.43
2019-03-31T20:29:45.308Z,8.68
2019-03-31T20:32:45.635Z,10.72
2019-03-31T20:35:39.888Z,6.05
2019-03-31T20:38:44.440Z,8.30
2019-03-31T20:41:31.523Z,7.75
2019-03-31T20:44:08.551Z,8.03
2019-03-31T20:46:44.974Z,10.50
2019-03-31T20:49:23.378Z,6.62
2019-03-31T20:51:59.257Z,7.35
2019-03-31T20:54:35.985Z,6.00
2019-03-31T20:57:12.291Z,8.10
2019-03-31T20:59:49.396Z,5.25
2019-03-31T21:02:26.676Z,5.67
2019-03-31T21:05:03.327Z,8.00
2019-03-31T21:07:39.741Z,7.12
2019-03-31T21:10:16.219Z,6.70
2019-03-31T21:12:52.479Z,5.92
2019-03-31T21:15:28.970Z,8.13
2019-03-31T21:18:05.378Z,7.40
2019-03-31T21:20:41.860Z,4.40
2019-03-31T21:23:18.212Z,5.05
2019-03-31T21:25:55.126Z,5.03
2019-03-31T21:28:31.907Z,6.20
2019-03-31T21:31:09.437Z,4.00
2019-03-31T21:33:45.747Z,3.22
2019-03-31T21:36:21.998Z,5.83
2019-03-31T21:38:58.250Z,3.65
2019-03-31T21:41:34.594Z,6.03
2019-03-31T21:44:10.470Z,5.03
2019-03-31T21:46:47.862Z,5.92
2019-03-31T21:49:23.860Z,4.22
2019-03-31T21:52:00.060Z,6.97
2019-03-31T21:54:36.529Z,4.40
2019-03-31T21:57:13.012Z,5.90
2019-03-31T21:59:49.959Z,4.10
2019-03-31T22:02:25.922Z,6.35
2019-03-31T22:05:02.423Z,5.47
2019-03-31T22:07:39.292Z,4.40
2019-03-31T22:10:16.042Z,6.70
2019-03-31T22:12:53.121Z,3.22
2019-03-31T22:15:29.621Z,10.23
2019-03-31T22:18:06.425Z,3.55
2019-03-31T22:20:42.320Z,5.47
2019-03-31T22:23:18.846Z,5.58
2019-03-31T22:25:54.782Z,6.35
2019-03-31T22:28:31.958Z,4.35
2019-03-31T22:31:08.374Z,4.78
2019-03-31T22:33:44.317Z,4.28
2019-03-31T22:36:25.501Z,4.25
2019-03-31T22:39:02.916Z,2.67
2019-03-31T22:41:39.546Z,5.92
2019-03-31T22:44:15.892Z,3.47
2019-03-31T22:46:54.543Z,4.37
2019-03-31T22:49:30.693Z,5.00
2019-03-31T22:52:07.272Z,6.20
2019-03-31T22:54:49.844Z,3.80
2019-03-31T22:57:26.516Z,4.50
2019-03-31T23:00:03.837Z,3.27
2019-03-31T23:02:39.967Z,5.78
2019-03-31T23:05:16.747Z,6.25
2019-03-31T23:07:53.419Z,4.20
2019-03-31T23:10:30.473Z,3.10
2019-03-31T23:13:07.063Z,4.20
2019-03-31T23:15:43.221Z,4.33
2019-03-31T23:18:19.317Z,2.77
2019-03-31T23:20:56.075Z,3.77
2019-03-31T23:23:32.536Z,4.10
2019-03-31T23:26:08.380Z,3.75
2019-03-31T23:28:48.007Z,3.85
2019-03-31T23:31:25.378Z,4.20
2019-03-31T23:34:01.885Z,5.47
2019-03-31T23:36:38.667Z,3.52
2019-03-31T23:39:15.128Z,4.20
2019-03-31T23:41:52.645Z,4.62
2019-03-31T23:44:29.401Z,4.05
2019-03-31T23:47:05.338Z,3.47
2019-03-31T23:49:41.709Z,4.33
2019-03-31T23:52:18.716Z,3.35
2019-03-31T23:54:55.112Z,4.83
2019-03-31T23:57:41.216Z,2.87
